<?xml version="1.0" encoding="utf-8"?>
<gpx xmlns:xsi="http://www.w3.org/2001/XMLSchema-instance" xmlns:xsd="http://www.w3.org/2001/XMLSchema" version="1.1" creator="Shapelink.com" xmlns="http://www.topografix.com/GPX/1/1" xmlns:gpxtpx="http://www.garmin.com/xmlschemas/TrackPointExtension/v1">
  <metadata>
    <name>Løping 5.11 km, 2012-09-19</name>
    <desc></desc>
    <author><name>Mikael Blom</name></author> 
    <time>2012-09-19T16:00:41Z</time>
  </metadata>
  <trk>
    <name>Løping 5.11 km, 2012-09-19</name>
    <trkseg>
      <trkpt lat="59.9792432" lon="17.7391438">
        <ele>47.2418</ele>
        <time>2012-09-19T16:00:41Z</time>
      </trkpt>
      <trkpt lat="59.9793734" lon="17.7390575">
        <ele>50.6066</ele>
        <time>2012-09-19T16:00:45Z</time>
      </trkpt>
      <trkpt lat="59.9795145" lon="17.7389596">
        <ele>52.5292</ele>
        <time>2012-09-19T16:00:50Z</time>
      </trkpt>
      <trkpt lat="59.9796183" lon="17.7389095">
        <ele>53.9712</ele>
        <time>2012-09-19T16:00:54Z</time>
      </trkpt>
      <trkpt lat="59.9797451" lon="17.7388456">
        <ele>57.3358</ele>
        <time>2012-09-19T16:00:59Z</time>
      </trkpt>
      <trkpt lat="59.9798902" lon="17.738754">
        <ele>59.2584</ele>
        <time>2012-09-19T16:01:04Z</time>
      </trkpt>
      <trkpt lat="59.9800162" lon="17.738718">
        <ele>58.7777</ele>
        <time>2012-09-19T16:01:09Z</time>
      </trkpt>
      <trkpt lat="59.9801384" lon="17.7387452">
        <ele>57.3358</ele>
        <time>2012-09-19T16:01:14Z</time>
      </trkpt>
      <trkpt lat="59.9801928" lon="17.738743">
        <ele>57.8165</ele>
        <time>2012-09-19T16:01:17Z</time>
      </trkpt>
      <trkpt lat="59.9803052" lon="17.7387792">
        <ele>59.7391</ele>
        <time>2012-09-19T16:01:22Z</time>
      </trkpt>
      <trkpt lat="59.9804652" lon="17.7387627">
        <ele>60.2197</ele>
        <time>2012-09-19T16:01:28Z</time>
      </trkpt>
      <trkpt lat="59.9806046" lon="17.7387359">
        <ele>62.1423</ele>
        <time>2012-09-19T16:01:33Z</time>
      </trkpt>
      <trkpt lat="59.9807046" lon="17.7386871">
        <ele>65.0264</ele>
        <time>2012-09-19T16:01:37Z</time>
      </trkpt>
      <trkpt lat="59.9808683" lon="17.7386369">
        <ele>66.949</ele>
        <time>2012-09-19T16:01:43Z</time>
      </trkpt>
      <trkpt lat="59.9809913" lon="17.738553">
        <ele>66.4683</ele>
        <time>2012-09-19T16:01:48Z</time>
      </trkpt>
      <trkpt lat="59.9810729" lon="17.7385405">
        <ele>65.0264</ele>
        <time>2012-09-19T16:01:52Z</time>
      </trkpt>
      <trkpt lat="59.9811992" lon="17.7385047">
        <ele>62.1423</ele>
        <time>2012-09-19T16:01:58Z</time>
      </trkpt>
      <trkpt lat="59.9813152" lon="17.7384835">
        <ele>63.5844</ele>
        <time>2012-09-19T16:02:03Z</time>
      </trkpt>
      <trkpt lat="59.9814395" lon="17.7384302">
        <ele>62.6229</ele>
        <time>2012-09-19T16:02:09Z</time>
      </trkpt>
      <trkpt lat="59.9815743" lon="17.7383955">
        <ele>58.7777</ele>
        <time>2012-09-19T16:02:15Z</time>
      </trkpt>
      <trkpt lat="59.9817125" lon="17.738371">
        <ele>62.1423</ele>
        <time>2012-09-19T16:02:21Z</time>
      </trkpt>
      <trkpt lat="59.9818265" lon="17.738326">
        <ele>63.5844</ele>
        <time>2012-09-19T16:02:26Z</time>
      </trkpt>
      <trkpt lat="59.9819536" lon="17.7382929">
        <ele>64.5457</ele>
        <time>2012-09-19T16:02:32Z</time>
      </trkpt>
      <trkpt lat="59.9820887" lon="17.7382044">
        <ele>63.1036</ele>
        <time>2012-09-19T16:02:38Z</time>
      </trkpt>
      <trkpt lat="59.9822116" lon="17.7381468">
        <ele>62.6229</ele>
        <time>2012-09-19T16:02:43Z</time>
      </trkpt>
      <trkpt lat="59.9823736" lon="17.7381033">
        <ele>63.1036</ele>
        <time>2012-09-19T16:02:49Z</time>
      </trkpt>
      <trkpt lat="59.982491" lon="17.7380889">
        <ele>64.0651</ele>
        <time>2012-09-19T16:02:54Z</time>
      </trkpt>
      <trkpt lat="59.9826168" lon="17.7380863">
        <ele>64.5457</ele>
        <time>2012-09-19T16:02:59Z</time>
      </trkpt>
      <trkpt lat="59.9827792" lon="17.7380858">
        <ele>68.3909</ele>
        <time>2012-09-19T16:03:04Z</time>
      </trkpt>
      <trkpt lat="59.9829801" lon="17.7381124">
        <ele>78.4847</ele>
        <time>2012-09-19T16:03:10Z</time>
      </trkpt>
      <trkpt lat="59.9830537" lon="17.738137">
        <ele>71.2749</ele>
        <time>2012-09-19T16:03:16Z</time>
      </trkpt>
      <trkpt lat="59.9831801" lon="17.7381307">
        <ele>73.1976</ele>
        <time>2012-09-19T16:03:21Z</time>
      </trkpt>
      <trkpt lat="59.9832857" lon="17.7380995">
        <ele>68.8716</ele>
        <time>2012-09-19T16:03:27Z</time>
      </trkpt>
      <trkpt lat="59.9834869" lon="17.7380845">
        <ele>73.1976</ele>
        <time>2012-09-19T16:03:34Z</time>
      </trkpt>
      <trkpt lat="59.9836132" lon="17.7380853">
        <ele>71.7555</ele>
        <time>2012-09-19T16:03:39Z</time>
      </trkpt>
      <trkpt lat="59.9837334" lon="17.7380462">
        <ele>77.0428</ele>
        <time>2012-09-19T16:03:43Z</time>
      </trkpt>
      <trkpt lat="59.9839317" lon="17.7380234">
        <ele>89.5399</ele>
        <time>2012-09-19T16:03:49Z</time>
      </trkpt>
      <trkpt lat="59.9840192" lon="17.738026">
        <ele>78.9655</ele>
        <time>2012-09-19T16:03:55Z</time>
      </trkpt>
      <trkpt lat="59.9841312" lon="17.7380392">
        <ele>77.0428</ele>
        <time>2012-09-19T16:04:00Z</time>
      </trkpt>
      <trkpt lat="59.9842457" lon="17.7380148">
        <ele>69.3523</ele>
        <time>2012-09-19T16:04:06Z</time>
      </trkpt>
      <trkpt lat="59.9843425" lon="17.7380204">
        <ele>64.0651</ele>
        <time>2012-09-19T16:04:11Z</time>
      </trkpt>
      <trkpt lat="59.984505" lon="17.7380309">
        <ele>60.7003</ele>
        <time>2012-09-19T16:04:17Z</time>
      </trkpt>
      <trkpt lat="59.9845341" lon="17.7380219">
        <ele>60.2197</ele>
        <time>2012-09-19T16:04:18Z</time>
      </trkpt>
      <trkpt lat="59.9846312" lon="17.7380365">
        <ele>59.7391</ele>
        <time>2012-09-19T16:04:22Z</time>
      </trkpt>
      <trkpt lat="59.9848124" lon="17.7381078">
        <ele>56.8551</ele>
        <time>2012-09-19T16:04:30Z</time>
      </trkpt>
      <trkpt lat="59.9849134" lon="17.73814">
        <ele>52.0486</ele>
        <time>2012-09-19T16:04:35Z</time>
      </trkpt>
      <trkpt lat="59.9850657" lon="17.7381815">
        <ele>49.6453</ele>
        <time>2012-09-19T16:04:42Z</time>
      </trkpt>
      <trkpt lat="59.9851885" lon="17.7381929">
        <ele>50.126</ele>
        <time>2012-09-19T16:04:47Z</time>
      </trkpt>
      <trkpt lat="59.9853305" lon="17.7382565">
        <ele>50.6066</ele>
        <time>2012-09-19T16:04:53Z</time>
      </trkpt>
      <trkpt lat="59.9855055" lon="17.738307">
        <ele>59.2584</ele>
        <time>2012-09-19T16:04:59Z</time>
      </trkpt>
      <trkpt lat="59.985662" lon="17.7383437">
        <ele>63.1036</ele>
        <time>2012-09-19T16:05:05Z</time>
      </trkpt>
      <trkpt lat="59.985811" lon="17.7383835">
        <ele>63.1036</ele>
        <time>2012-09-19T16:05:11Z</time>
      </trkpt>
      <trkpt lat="59.9859212" lon="17.7384855">
        <ele>63.1036</ele>
        <time>2012-09-19T16:05:15Z</time>
      </trkpt>
      <trkpt lat="59.9860437" lon="17.7386095">
        <ele>64.0651</ele>
        <time>2012-09-19T16:05:20Z</time>
      </trkpt>
      <trkpt lat="59.9861572" lon="17.7386953">
        <ele>63.5844</ele>
        <time>2012-09-19T16:05:25Z</time>
      </trkpt>
      <trkpt lat="59.986268" lon="17.738756">
        <ele>63.5844</ele>
        <time>2012-09-19T16:05:30Z</time>
      </trkpt>
      <trkpt lat="59.9863642" lon="17.7388245">
        <ele>63.1036</ele>
        <time>2012-09-19T16:05:34Z</time>
      </trkpt>
      <trkpt lat="59.9864731" lon="17.7389744">
        <ele>63.1036</ele>
        <time>2012-09-19T16:05:39Z</time>
      </trkpt>
      <trkpt lat="59.9865843" lon="17.7390648">
        <ele>62.1423</ele>
        <time>2012-09-19T16:05:44Z</time>
      </trkpt>
      <trkpt lat="59.9866986" lon="17.739194">
        <ele>64.0651</ele>
        <time>2012-09-19T16:05:49Z</time>
      </trkpt>
      <trkpt lat="59.9868053" lon="17.7392979">
        <ele>65.0264</ele>
        <time>2012-09-19T16:05:54Z</time>
      </trkpt>
      <trkpt lat="59.9869397" lon="17.7394067">
        <ele>62.1423</ele>
        <time>2012-09-19T16:06:00Z</time>
      </trkpt>
      <trkpt lat="59.9870459" lon="17.7394548">
        <ele>62.6229</ele>
        <time>2012-09-19T16:06:05Z</time>
      </trkpt>
      <trkpt lat="59.9871492" lon="17.7394722">
        <ele>63.1036</ele>
        <time>2012-09-19T16:06:09Z</time>
      </trkpt>
      <trkpt lat="59.9872672" lon="17.7394708">
        <ele>62.1423</ele>
        <time>2012-09-19T16:06:14Z</time>
      </trkpt>
      <trkpt lat="59.9874288" lon="17.7394394">
        <ele>59.7391</ele>
        <time>2012-09-19T16:06:21Z</time>
      </trkpt>
      <trkpt lat="59.9874911" lon="17.7394451">
        <ele>58.7777</ele>
        <time>2012-09-19T16:06:24Z</time>
      </trkpt>
      <trkpt lat="59.9875847" lon="17.7394424">
        <ele>58.2971</ele>
        <time>2012-09-19T16:06:29Z</time>
      </trkpt>
      <trkpt lat="59.9876459" lon="17.7394495">
        <ele>57.3358</ele>
        <time>2012-09-19T16:06:32Z</time>
      </trkpt>
      <trkpt lat="59.9878246" lon="17.7394199">
        <ele>57.8165</ele>
        <time>2012-09-19T16:06:39Z</time>
      </trkpt>
      <trkpt lat="59.9879691" lon="17.7393982">
        <ele>58.2971</ele>
        <time>2012-09-19T16:06:45Z</time>
      </trkpt>
      <trkpt lat="59.9880586" lon="17.7393544">
        <ele>62.1423</ele>
        <time>2012-09-19T16:06:48Z</time>
      </trkpt>
      <trkpt lat="59.988151" lon="17.7393449">
        <ele>60.7003</ele>
        <time>2012-09-19T16:06:53Z</time>
      </trkpt>
      <trkpt lat="59.9882752" lon="17.7392766">
        <ele>57.8165</ele>
        <time>2012-09-19T16:06:59Z</time>
      </trkpt>
      <trkpt lat="59.9884351" lon="17.7392025">
        <ele>57.8165</ele>
        <time>2012-09-19T16:07:06Z</time>
      </trkpt>
      <trkpt lat="59.9885612" lon="17.739129">
        <ele>58.7777</ele>
        <time>2012-09-19T16:07:11Z</time>
      </trkpt>
      <trkpt lat="59.9887166" lon="17.7389694">
        <ele>58.7777</ele>
        <time>2012-09-19T16:07:18Z</time>
      </trkpt>
      <trkpt lat="59.9888558" lon="17.7388638">
        <ele>62.1423</ele>
        <time>2012-09-19T16:07:23Z</time>
      </trkpt>
      <trkpt lat="59.9890165" lon="17.7387933">
        <ele>66.949</ele>
        <time>2012-09-19T16:07:29Z</time>
      </trkpt>
      <trkpt lat="59.9891177" lon="17.7387061">
        <ele>63.1036</ele>
        <time>2012-09-19T16:07:34Z</time>
      </trkpt>
      <trkpt lat="59.9892383" lon="17.7386223">
        <ele>62.1423</ele>
        <time>2012-09-19T16:07:39Z</time>
      </trkpt>
      <trkpt lat="59.9893605" lon="17.7385567">
        <ele>65.5071</ele>
        <time>2012-09-19T16:07:43Z</time>
      </trkpt>
      <trkpt lat="59.9894672" lon="17.7384916">
        <ele>63.1036</ele>
        <time>2012-09-19T16:07:48Z</time>
      </trkpt>
      <trkpt lat="59.9895822" lon="17.7384623">
        <ele>59.7391</ele>
        <time>2012-09-19T16:07:53Z</time>
      </trkpt>
      <trkpt lat="59.9897059" lon="17.7384069">
        <ele>57.8165</ele>
        <time>2012-09-19T16:07:59Z</time>
      </trkpt>
      <trkpt lat="59.9898216" lon="17.7383308">
        <ele>57.3358</ele>
        <time>2012-09-19T16:08:04Z</time>
      </trkpt>
      <trkpt lat="59.9899231" lon="17.7383384">
        <ele>54.9324</ele>
        <time>2012-09-19T16:08:09Z</time>
      </trkpt>
      <trkpt lat="59.990033" lon="17.7382868">
        <ele>54.9324</ele>
        <time>2012-09-19T16:08:14Z</time>
      </trkpt>
      <trkpt lat="59.990201" lon="17.7382085">
        <ele>56.3745</ele>
        <time>2012-09-19T16:08:20Z</time>
      </trkpt>
      <trkpt lat="59.9902221" lon="17.7382131">
        <ele>56.3745</ele>
        <time>2012-09-19T16:08:21Z</time>
      </trkpt>
      <trkpt lat="59.9903711" lon="17.7381555">
        <ele>58.7777</ele>
        <time>2012-09-19T16:08:27Z</time>
      </trkpt>
      <trkpt lat="59.9904937" lon="17.738094">
        <ele>59.2584</ele>
        <time>2012-09-19T16:08:32Z</time>
      </trkpt>
      <trkpt lat="59.9906422" lon="17.7380154">
        <ele>65.0264</ele>
        <time>2012-09-19T16:08:37Z</time>
      </trkpt>
      <trkpt lat="59.9907527" lon="17.7379578">
        <ele>64.0651</ele>
        <time>2012-09-19T16:08:41Z</time>
      </trkpt>
      <trkpt lat="59.9907742" lon="17.7379408">
        <ele>63.5844</ele>
        <time>2012-09-19T16:08:42Z</time>
      </trkpt>
      <trkpt lat="59.9908934" lon="17.737869">
        <ele>61.6617</ele>
        <time>2012-09-19T16:08:47Z</time>
      </trkpt>
      <trkpt lat="59.9910274" lon="17.7377805">
        <ele>57.8165</ele>
        <time>2012-09-19T16:08:53Z</time>
      </trkpt>
      <trkpt lat="59.9911785" lon="17.7377205">
        <ele>54.4518</ele>
        <time>2012-09-19T16:08:59Z</time>
      </trkpt>
      <trkpt lat="59.9913451" lon="17.7377094">
        <ele>62.1423</ele>
        <time>2012-09-19T16:09:04Z</time>
      </trkpt>
      <trkpt lat="59.9914753" lon="17.7377364">
        <ele>59.7391</ele>
        <time>2012-09-19T16:09:10Z</time>
      </trkpt>
      <trkpt lat="59.9916926" lon="17.7377359">
        <ele>60.7003</ele>
        <time>2012-09-19T16:09:18Z</time>
      </trkpt>
      <trkpt lat="59.9918049" lon="17.7376986">
        <ele>58.2971</ele>
        <time>2012-09-19T16:09:23Z</time>
      </trkpt>
      <trkpt lat="59.9919654" lon="17.7376356">
        <ele>58.7777</ele>
        <time>2012-09-19T16:09:29Z</time>
      </trkpt>
      <trkpt lat="59.9921443" lon="17.7375377">
        <ele>61.6617</ele>
        <time>2012-09-19T16:09:35Z</time>
      </trkpt>
      <trkpt lat="59.9922676" lon="17.737466">
        <ele>61.181</ele>
        <time>2012-09-19T16:09:40Z</time>
      </trkpt>
      <trkpt lat="59.9923836" lon="17.7373453">
        <ele>63.5844</ele>
        <time>2012-09-19T16:09:45Z</time>
      </trkpt>
      <trkpt lat="59.9925046" lon="17.7372828">
        <ele>62.6229</ele>
        <time>2012-09-19T16:09:50Z</time>
      </trkpt>
      <trkpt lat="59.9926061" lon="17.7371834">
        <ele>60.7003</ele>
        <time>2012-09-19T16:09:55Z</time>
      </trkpt>
      <trkpt lat="59.9927146" lon="17.7370808">
        <ele>62.6229</ele>
        <time>2012-09-19T16:09:59Z</time>
      </trkpt>
      <trkpt lat="59.9927919" lon="17.7369843">
        <ele>62.6229</ele>
        <time>2012-09-19T16:10:03Z</time>
      </trkpt>
      <trkpt lat="59.9928784" lon="17.7368259">
        <ele>60.2197</ele>
        <time>2012-09-19T16:10:08Z</time>
      </trkpt>
      <trkpt lat="59.9929927" lon="17.7366243">
        <ele>57.3358</ele>
        <time>2012-09-19T16:10:14Z</time>
      </trkpt>
      <trkpt lat="59.9930783" lon="17.7364151">
        <ele>55.8938</ele>
        <time>2012-09-19T16:10:19Z</time>
      </trkpt>
      <trkpt lat="59.9931486" lon="17.7362323">
        <ele>53.0098</ele>
        <time>2012-09-19T16:10:24Z</time>
      </trkpt>
      <trkpt lat="59.9932353" lon="17.7359691">
        <ele>52.5292</ele>
        <time>2012-09-19T16:10:30Z</time>
      </trkpt>
      <trkpt lat="59.9933568" lon="17.7358225">
        <ele>54.4518</ele>
        <time>2012-09-19T16:10:36Z</time>
      </trkpt>
      <trkpt lat="59.9934909" lon="17.7356842">
        <ele>55.4131</ele>
        <time>2012-09-19T16:10:42Z</time>
      </trkpt>
      <trkpt lat="59.9936153" lon="17.7355972">
        <ele>54.9324</ele>
        <time>2012-09-19T16:10:47Z</time>
      </trkpt>
      <trkpt lat="59.9937299" lon="17.7355583">
        <ele>54.4518</ele>
        <time>2012-09-19T16:10:52Z</time>
      </trkpt>
      <trkpt lat="59.9938225" lon="17.7355904">
        <ele>53.9712</ele>
        <time>2012-09-19T16:10:56Z</time>
      </trkpt>
      <trkpt lat="59.9939547" lon="17.7356288">
        <ele>53.9712</ele>
        <time>2012-09-19T16:11:01Z</time>
      </trkpt>
      <trkpt lat="59.9940541" lon="17.7356427">
        <ele>52.5292</ele>
        <time>2012-09-19T16:11:06Z</time>
      </trkpt>
      <trkpt lat="59.9942184" lon="17.7356479">
        <ele>51.0872</ele>
        <time>2012-09-19T16:11:12Z</time>
      </trkpt>
      <trkpt lat="59.9943534" lon="17.7356619">
        <ele>52.5292</ele>
        <time>2012-09-19T16:11:17Z</time>
      </trkpt>
      <trkpt lat="59.9944738" lon="17.7357293">
        <ele>53.4905</ele>
        <time>2012-09-19T16:11:22Z</time>
      </trkpt>
      <trkpt lat="59.9945903" lon="17.7358177">
        <ele>53.0098</ele>
        <time>2012-09-19T16:11:27Z</time>
      </trkpt>
      <trkpt lat="59.9946877" lon="17.7358991">
        <ele>52.0486</ele>
        <time>2012-09-19T16:11:32Z</time>
      </trkpt>
      <trkpt lat="59.9947666" lon="17.7359411">
        <ele>51.5679</ele>
        <time>2012-09-19T16:11:36Z</time>
      </trkpt>
      <trkpt lat="59.9948867" lon="17.736034">
        <ele>49.6453</ele>
        <time>2012-09-19T16:11:42Z</time>
      </trkpt>
      <trkpt lat="59.9949782" lon="17.7360432">
        <ele>48.2034</ele>
        <time>2012-09-19T16:11:46Z</time>
      </trkpt>
      <trkpt lat="59.9951348" lon="17.7360917">
        <ele>49.1646</ele>
        <time>2012-09-19T16:11:53Z</time>
      </trkpt>
      <trkpt lat="59.9952772" lon="17.7361313">
        <ele>50.126</ele>
        <time>2012-09-19T16:11:59Z</time>
      </trkpt>
      <trkpt lat="59.9953973" lon="17.7361074">
        <ele>50.126</ele>
        <time>2012-09-19T16:12:04Z</time>
      </trkpt>
      <trkpt lat="59.9955321" lon="17.7361121">
        <ele>48.684</ele>
        <time>2012-09-19T16:12:09Z</time>
      </trkpt>
      <trkpt lat="59.9956303" lon="17.7361177">
        <ele>49.1646</ele>
        <time>2012-09-19T16:12:13Z</time>
      </trkpt>
      <trkpt lat="59.9957766" lon="17.7361197">
        <ele>49.6453</ele>
        <time>2012-09-19T16:12:19Z</time>
      </trkpt>
      <trkpt lat="59.9959" lon="17.7361399">
        <ele>49.1646</ele>
        <time>2012-09-19T16:12:24Z</time>
      </trkpt>
      <trkpt lat="59.9960202" lon="17.736137">
        <ele>49.1646</ele>
        <time>2012-09-19T16:12:29Z</time>
      </trkpt>
      <trkpt lat="59.9960764" lon="17.736116">
        <ele>49.1646</ele>
        <time>2012-09-19T16:12:31Z</time>
      </trkpt>
      <trkpt lat="59.9962066" lon="17.7361406">
        <ele>49.1646</ele>
        <time>2012-09-19T16:12:37Z</time>
      </trkpt>
      <trkpt lat="59.996221" lon="17.7361556">
        <ele>49.1646</ele>
        <time>2012-09-19T16:12:38Z</time>
      </trkpt>
      <trkpt lat="59.9962775" lon="17.7361808">
        <ele>49.6453</ele>
        <time>2012-09-19T16:12:41Z</time>
      </trkpt>
      <trkpt lat="59.996325" lon="17.7362075">
        <ele>49.6453</ele>
        <time>2012-09-19T16:12:43Z</time>
      </trkpt>
      <trkpt lat="59.996523" lon="17.7362887">
        <ele>52.0486</ele>
        <time>2012-09-19T16:12:50Z</time>
      </trkpt>
      <trkpt lat="59.9966187" lon="17.7364022">
        <ele>50.6066</ele>
        <time>2012-09-19T16:12:55Z</time>
      </trkpt>
      <trkpt lat="59.9967287" lon="17.7364487">
        <ele>50.126</ele>
        <time>2012-09-19T16:13:00Z</time>
      </trkpt>
      <trkpt lat="59.9968453" lon="17.7364823">
        <ele>49.6453</ele>
        <time>2012-09-19T16:13:05Z</time>
      </trkpt>
      <trkpt lat="59.9969447" lon="17.7365151">
        <ele>49.6453</ele>
        <time>2012-09-19T16:13:10Z</time>
      </trkpt>
      <trkpt lat="59.9969811" lon="17.7365436">
        <ele>48.684</ele>
        <time>2012-09-19T16:13:12Z</time>
      </trkpt>
      <trkpt lat="59.9971058" lon="17.7365912">
        <ele>46.7612</ele>
        <time>2012-09-19T16:13:18Z</time>
      </trkpt>
      <trkpt lat="59.9972166" lon="17.736611">
        <ele>46.2806</ele>
        <time>2012-09-19T16:13:22Z</time>
      </trkpt>
      <trkpt lat="59.997239" lon="17.7366164">
        <ele>45.7999</ele>
        <time>2012-09-19T16:13:23Z</time>
      </trkpt>
      <trkpt lat="59.9973851" lon="17.7366423">
        <ele>48.2034</ele>
        <time>2012-09-19T16:13:29Z</time>
      </trkpt>
      <trkpt lat="59.9975005" lon="17.7366213">
        <ele>48.684</ele>
        <time>2012-09-19T16:13:34Z</time>
      </trkpt>
      <trkpt lat="59.997633" lon="17.7366143">
        <ele>53.4905</ele>
        <time>2012-09-19T16:13:39Z</time>
      </trkpt>
      <trkpt lat="59.9977279" lon="17.7366368">
        <ele>52.5292</ele>
        <time>2012-09-19T16:13:44Z</time>
      </trkpt>
      <trkpt lat="59.9978836" lon="17.736644">
        <ele>50.6066</ele>
        <time>2012-09-19T16:13:51Z</time>
      </trkpt>
      <trkpt lat="59.9980175" lon="17.7366532">
        <ele>47.2418</ele>
        <time>2012-09-19T16:13:57Z</time>
      </trkpt>
      <trkpt lat="59.9981258" lon="17.7366871">
        <ele>44.358</ele>
        <time>2012-09-19T16:14:02Z</time>
      </trkpt>
      <trkpt lat="59.9983008" lon="17.7367181">
        <ele>41.474</ele>
        <time>2012-09-19T16:14:09Z</time>
      </trkpt>
      <trkpt lat="59.9984323" lon="17.7367306">
        <ele>41.474</ele>
        <time>2012-09-19T16:14:14Z</time>
      </trkpt>
      <trkpt lat="59.9985915" lon="17.7367358">
        <ele>41.9547</ele>
        <time>2012-09-19T16:14:20Z</time>
      </trkpt>
      <trkpt lat="59.9987343" lon="17.7367487">
        <ele>42.4354</ele>
        <time>2012-09-19T16:14:25Z</time>
      </trkpt>
      <trkpt lat="59.9987581" lon="17.7367517">
        <ele>41.9547</ele>
        <time>2012-09-19T16:14:26Z</time>
      </trkpt>
      <trkpt lat="59.9989117" lon="17.7367991">
        <ele>41.474</ele>
        <time>2012-09-19T16:14:32Z</time>
      </trkpt>
      <trkpt lat="59.9990191" lon="17.7368046">
        <ele>40.9934</ele>
        <time>2012-09-19T16:14:37Z</time>
      </trkpt>
      <trkpt lat="59.9991436" lon="17.736825">
        <ele>41.474</ele>
        <time>2012-09-19T16:14:42Z</time>
      </trkpt>
      <trkpt lat="59.9993063" lon="17.7368317">
        <ele>42.916</ele>
        <time>2012-09-19T16:14:48Z</time>
      </trkpt>
      <trkpt lat="59.9994135" lon="17.7368264">
        <ele>44.358</ele>
        <time>2012-09-19T16:14:52Z</time>
      </trkpt>
      <trkpt lat="59.9995187" lon="17.7368398">
        <ele>44.8386</ele>
        <time>2012-09-19T16:14:56Z</time>
      </trkpt>
      <trkpt lat="59.9996429" lon="17.7368673">
        <ele>43.8773</ele>
        <time>2012-09-19T16:15:01Z</time>
      </trkpt>
      <trkpt lat="59.9997754" lon="17.7368713">
        <ele>45.3192</ele>
        <time>2012-09-19T16:15:06Z</time>
      </trkpt>
      <trkpt lat="59.9999068" lon="17.7368783">
        <ele>45.3192</ele>
        <time>2012-09-19T16:15:11Z</time>
      </trkpt>
      <trkpt lat="60.0000445" lon="17.7368799">
        <ele>45.3192</ele>
        <time>2012-09-19T16:15:16Z</time>
      </trkpt>
      <trkpt lat="60.0001775" lon="17.7368659">
        <ele>43.8773</ele>
        <time>2012-09-19T16:15:21Z</time>
      </trkpt>
      <trkpt lat="60.0003019" lon="17.7367979">
        <ele>42.916</ele>
        <time>2012-09-19T16:15:26Z</time>
      </trkpt>
      <trkpt lat="60.0004257" lon="17.73671">
        <ele>40.9934</ele>
        <time>2012-09-19T16:15:31Z</time>
      </trkpt>
      <trkpt lat="60.0005108" lon="17.7366409">
        <ele>40.0321</ele>
        <time>2012-09-19T16:15:35Z</time>
      </trkpt>
      <trkpt lat="60.0006424" lon="17.7365302">
        <ele>39.5513</ele>
        <time>2012-09-19T16:15:40Z</time>
      </trkpt>
      <trkpt lat="60.0006618" lon="17.7365105">
        <ele>39.0707</ele>
        <time>2012-09-19T16:15:41Z</time>
      </trkpt>
      <trkpt lat="60.0007498" lon="17.7364598">
        <ele>37.6287</ele>
        <time>2012-09-19T16:15:45Z</time>
      </trkpt>
      <trkpt lat="60.0009157" lon="17.7363799">
        <ele>35.2255</ele>
        <time>2012-09-19T16:15:52Z</time>
      </trkpt>
      <trkpt lat="60.0009369" lon="17.7363742">
        <ele>35.2255</ele>
        <time>2012-09-19T16:15:53Z</time>
      </trkpt>
      <trkpt lat="60.0009844" lon="17.7364378">
        <ele>36.1868</ele>
        <time>2012-09-19T16:15:57Z</time>
      </trkpt>
      <trkpt lat="60.0009586" lon="17.7364413">
        <ele>36.1868</ele>
        <time>2012-09-19T16:16:00Z</time>
      </trkpt>
      <trkpt lat="60.0008085" lon="17.7365223">
        <ele>36.6675</ele>
        <time>2012-09-19T16:16:07Z</time>
      </trkpt>
      <trkpt lat="60.0006514" lon="17.736629">
        <ele>38.1094</ele>
        <time>2012-09-19T16:16:13Z</time>
      </trkpt>
      <trkpt lat="60.0005619" lon="17.7366887">
        <ele>37.1481</ele>
        <time>2012-09-19T16:16:17Z</time>
      </trkpt>
      <trkpt lat="60.0004713" lon="17.7367606">
        <ele>37.1481</ele>
        <time>2012-09-19T16:16:21Z</time>
      </trkpt>
      <trkpt lat="60.0003229" lon="17.7368428">
        <ele>38.5901</ele>
        <time>2012-09-19T16:16:27Z</time>
      </trkpt>
      <trkpt lat="60.0002035" lon="17.7368419">
        <ele>38.5901</ele>
        <time>2012-09-19T16:16:32Z</time>
      </trkpt>
      <trkpt lat="60.0000854" lon="17.7368958">
        <ele>38.5901</ele>
        <time>2012-09-19T16:16:36Z</time>
      </trkpt>
      <trkpt lat="59.999972" lon="17.7369637">
        <ele>37.6287</ele>
        <time>2012-09-19T16:16:40Z</time>
      </trkpt>
      <trkpt lat="59.9998503" lon="17.7370129">
        <ele>38.1094</ele>
        <time>2012-09-19T16:16:45Z</time>
      </trkpt>
      <trkpt lat="59.9997414" lon="17.7369859">
        <ele>41.474</ele>
        <time>2012-09-19T16:16:50Z</time>
      </trkpt>
      <trkpt lat="59.99964" lon="17.7369687">
        <ele>44.358</ele>
        <time>2012-09-19T16:16:54Z</time>
      </trkpt>
      <trkpt lat="59.9995014" lon="17.7369228">
        <ele>47.2418</ele>
        <time>2012-09-19T16:17:00Z</time>
      </trkpt>
      <trkpt lat="59.9993952" lon="17.7369154">
        <ele>49.6453</ele>
        <time>2012-09-19T16:17:04Z</time>
      </trkpt>
      <trkpt lat="59.9992669" lon="17.7369527">
        <ele>50.126</ele>
        <time>2012-09-19T16:17:09Z</time>
      </trkpt>
      <trkpt lat="59.9991556" lon="17.7370008">
        <ele>51.0872</ele>
        <time>2012-09-19T16:17:13Z</time>
      </trkpt>
      <trkpt lat="59.9990644" lon="17.7369771">
        <ele>49.6453</ele>
        <time>2012-09-19T16:17:17Z</time>
      </trkpt>
      <trkpt lat="59.9989856" lon="17.7369382">
        <ele>48.684</ele>
        <time>2012-09-19T16:17:20Z</time>
      </trkpt>
      <trkpt lat="59.9988965" lon="17.7369233">
        <ele>49.6453</ele>
        <time>2012-09-19T16:17:23Z</time>
      </trkpt>
      <trkpt lat="59.9987927" lon="17.7368767">
        <ele>48.2034</ele>
        <time>2012-09-19T16:17:28Z</time>
      </trkpt>
      <trkpt lat="59.9986938" lon="17.7368632">
        <ele>48.2034</ele>
        <time>2012-09-19T16:17:32Z</time>
      </trkpt>
      <trkpt lat="59.9986179" lon="17.7368315">
        <ele>48.2034</ele>
        <time>2012-09-19T16:17:35Z</time>
      </trkpt>
      <trkpt lat="59.9985732" lon="17.7368332">
        <ele>48.684</ele>
        <time>2012-09-19T16:17:37Z</time>
      </trkpt>
      <trkpt lat="59.9984708" lon="17.7368615">
        <ele>48.684</ele>
        <time>2012-09-19T16:17:41Z</time>
      </trkpt>
      <trkpt lat="59.9983567" lon="17.736798">
        <ele>48.2034</ele>
        <time>2012-09-19T16:17:46Z</time>
      </trkpt>
      <trkpt lat="59.9982607" lon="17.7367639">
        <ele>46.2806</ele>
        <time>2012-09-19T16:17:51Z</time>
      </trkpt>
      <trkpt lat="59.9981464" lon="17.736755">
        <ele>47.2418</ele>
        <time>2012-09-19T16:17:56Z</time>
      </trkpt>
      <trkpt lat="59.9979905" lon="17.7367356">
        <ele>50.6066</ele>
        <time>2012-09-19T16:18:02Z</time>
      </trkpt>
      <trkpt lat="59.9979169" lon="17.7367544">
        <ele>51.5679</ele>
        <time>2012-09-19T16:18:05Z</time>
      </trkpt>
      <trkpt lat="59.9977704" lon="17.7367714">
        <ele>52.0486</ele>
        <time>2012-09-19T16:18:11Z</time>
      </trkpt>
      <trkpt lat="59.9976818" lon="17.7367953">
        <ele>53.9712</ele>
        <time>2012-09-19T16:18:15Z</time>
      </trkpt>
      <trkpt lat="59.997658" lon="17.7367889">
        <ele>53.9712</ele>
        <time>2012-09-19T16:18:16Z</time>
      </trkpt>
      <trkpt lat="59.997536" lon="17.7367689">
        <ele>57.3358</ele>
        <time>2012-09-19T16:18:21Z</time>
      </trkpt>
      <trkpt lat="59.9974223" lon="17.7367328">
        <ele>58.2971</ele>
        <time>2012-09-19T16:18:26Z</time>
      </trkpt>
      <trkpt lat="59.9973257" lon="17.7367052">
        <ele>56.8551</ele>
        <time>2012-09-19T16:18:30Z</time>
      </trkpt>
      <trkpt lat="59.9971933" lon="17.736674">
        <ele>57.8165</ele>
        <time>2012-09-19T16:18:35Z</time>
      </trkpt>
      <trkpt lat="59.9970374" lon="17.7366611">
        <ele>59.2584</ele>
        <time>2012-09-19T16:18:41Z</time>
      </trkpt>
      <trkpt lat="59.9968992" lon="17.7366366">
        <ele>60.2197</ele>
        <time>2012-09-19T16:18:46Z</time>
      </trkpt>
      <trkpt lat="59.9967853" lon="17.7365913">
        <ele>60.2197</ele>
        <time>2012-09-19T16:18:51Z</time>
      </trkpt>
      <trkpt lat="59.9967629" lon="17.736585">
        <ele>60.7003</ele>
        <time>2012-09-19T16:18:52Z</time>
      </trkpt>
      <trkpt lat="59.9966446" lon="17.736526">
        <ele>58.7777</ele>
        <time>2012-09-19T16:18:57Z</time>
      </trkpt>
      <trkpt lat="59.9965468" lon="17.7364296">
        <ele>58.7777</ele>
        <time>2012-09-19T16:19:02Z</time>
      </trkpt>
      <trkpt lat="59.9964964" lon="17.7363867">
        <ele>58.2971</ele>
        <time>2012-09-19T16:19:04Z</time>
      </trkpt>
      <trkpt lat="59.9963561" lon="17.7363359">
        <ele>59.2584</ele>
        <time>2012-09-19T16:19:09Z</time>
      </trkpt>
      <trkpt lat="59.996225" lon="17.7363264">
        <ele>60.2197</ele>
        <time>2012-09-19T16:19:13Z</time>
      </trkpt>
      <trkpt lat="59.9961743" lon="17.7362675">
        <ele>60.7003</ele>
        <time>2012-09-19T16:19:16Z</time>
      </trkpt>
      <trkpt lat="59.9960703" lon="17.7361736">
        <ele>60.7003</ele>
        <time>2012-09-19T16:19:21Z</time>
      </trkpt>
      <trkpt lat="59.9960372" lon="17.736141">
        <ele>61.181</ele>
        <time>2012-09-19T16:19:23Z</time>
      </trkpt>
      <trkpt lat="59.9959983" lon="17.7361245">
        <ele>60.7003</ele>
        <time>2012-09-19T16:19:25Z</time>
      </trkpt>
      <trkpt lat="59.9959274" lon="17.7361264">
        <ele>59.7391</ele>
        <time>2012-09-19T16:19:28Z</time>
      </trkpt>
      <trkpt lat="59.9958114" lon="17.7361448">
        <ele>56.3745</ele>
        <time>2012-09-19T16:19:34Z</time>
      </trkpt>
      <trkpt lat="59.9956683" lon="17.7361587">
        <ele>51.0872</ele>
        <time>2012-09-19T16:19:40Z</time>
      </trkpt>
      <trkpt lat="59.9955987" lon="17.7361521">
        <ele>48.684</ele>
        <time>2012-09-19T16:19:43Z</time>
      </trkpt>
      <trkpt lat="59.9954808" lon="17.7361236">
        <ele>43.8773</ele>
        <time>2012-09-19T16:19:48Z</time>
      </trkpt>
      <trkpt lat="59.995347" lon="17.7361459">
        <ele>38.5901</ele>
        <time>2012-09-19T16:19:53Z</time>
      </trkpt>
      <trkpt lat="59.9952834" lon="17.7361384">
        <ele>35.2255</ele>
        <time>2012-09-19T16:19:56Z</time>
      </trkpt>
      <trkpt lat="59.9951719" lon="17.7360901">
        <ele>32.8223</ele>
        <time>2012-09-19T16:20:01Z</time>
      </trkpt>
      <trkpt lat="59.9951108" lon="17.7360374">
        <ele>31.3801</ele>
        <time>2012-09-19T16:20:04Z</time>
      </trkpt>
      <trkpt lat="59.995052" lon="17.7359764">
        <ele>30.8995</ele>
        <time>2012-09-19T16:20:07Z</time>
      </trkpt>
      <trkpt lat="59.9949667" lon="17.7359326">
        <ele>29.4575</ele>
        <time>2012-09-19T16:20:11Z</time>
      </trkpt>
      <trkpt lat="59.9948671" lon="17.7358474">
        <ele>29.9381</ele>
        <time>2012-09-19T16:20:15Z</time>
      </trkpt>
      <trkpt lat="59.9948047" lon="17.7358316">
        <ele>30.4188</ele>
        <time>2012-09-19T16:20:17Z</time>
      </trkpt>
      <trkpt lat="59.9946984" lon="17.7357738">
        <ele>31.8607</ele>
        <time>2012-09-19T16:20:21Z</time>
      </trkpt>
      <trkpt lat="59.9945327" lon="17.7356796">
        <ele>33.7834</ele>
        <time>2012-09-19T16:20:27Z</time>
      </trkpt>
      <trkpt lat="59.9944249" lon="17.7356436">
        <ele>34.7449</ele>
        <time>2012-09-19T16:20:31Z</time>
      </trkpt>
      <trkpt lat="59.994328" lon="17.7355942">
        <ele>33.3029</ele>
        <time>2012-09-19T16:20:35Z</time>
      </trkpt>
      <trkpt lat="59.994227" lon="17.7355686">
        <ele>29.4575</ele>
        <time>2012-09-19T16:20:40Z</time>
      </trkpt>
      <trkpt lat="59.9941089" lon="17.7355433">
        <ele>27.0543</ele>
        <time>2012-09-19T16:20:45Z</time>
      </trkpt>
      <trkpt lat="59.9940019" lon="17.7355086">
        <ele>23.209</ele>
        <time>2012-09-19T16:20:50Z</time>
      </trkpt>
      <trkpt lat="59.9938895" lon="17.7355215">
        <ele>20.325</ele>
        <time>2012-09-19T16:20:55Z</time>
      </trkpt>
      <trkpt lat="59.9937957" lon="17.7355305">
        <ele>15.999</ele>
        <time>2012-09-19T16:21:00Z</time>
      </trkpt>
      <trkpt lat="59.9937031" lon="17.7355977">
        <ele>14.0764</ele>
        <time>2012-09-19T16:21:04Z</time>
      </trkpt>
      <trkpt lat="59.9936475" lon="17.7356221">
        <ele>12.6344</ele>
        <time>2012-09-19T16:21:06Z</time>
      </trkpt>
      <trkpt lat="59.9934469" lon="17.7357892">
        <ele>10.2312</ele>
        <time>2012-09-19T16:21:14Z</time>
      </trkpt>
      <trkpt lat="59.9933505" lon="17.735952">
        <ele>8.78918</ele>
        <time>2012-09-19T16:21:19Z</time>
      </trkpt>
      <trkpt lat="59.9932993" lon="17.7360265">
        <ele>8.30859</ele>
        <time>2012-09-19T16:21:21Z</time>
      </trkpt>
      <trkpt lat="59.9931783" lon="17.7362346">
        <ele>14.557</ele>
        <time>2012-09-19T16:21:27Z</time>
      </trkpt>
      <trkpt lat="59.993086" lon="17.7364374">
        <ele>18.4023</ele>
        <time>2012-09-19T16:21:32Z</time>
      </trkpt>
      <trkpt lat="59.9929773" lon="17.7366182">
        <ele>22.7283</ele>
        <time>2012-09-19T16:21:37Z</time>
      </trkpt>
      <trkpt lat="59.9928798" lon="17.7367913">
        <ele>28.0155</ele>
        <time>2012-09-19T16:21:42Z</time>
      </trkpt>
      <trkpt lat="59.9927743" lon="17.7369683">
        <ele>31.3801</ele>
        <time>2012-09-19T16:21:47Z</time>
      </trkpt>
      <trkpt lat="59.9926995" lon="17.7371113">
        <ele>36.1868</ele>
        <time>2012-09-19T16:21:51Z</time>
      </trkpt>
      <trkpt lat="59.9925861" lon="17.7372838">
        <ele>39.5513</ele>
        <time>2012-09-19T16:21:57Z</time>
      </trkpt>
      <trkpt lat="59.9924871" lon="17.7374044">
        <ele>42.916</ele>
        <time>2012-09-19T16:22:02Z</time>
      </trkpt>
      <trkpt lat="59.9924059" lon="17.7374801">
        <ele>43.3966</ele>
        <time>2012-09-19T16:22:06Z</time>
      </trkpt>
      <trkpt lat="59.9923099" lon="17.7375386">
        <ele>42.916</ele>
        <time>2012-09-19T16:22:10Z</time>
      </trkpt>
      <trkpt lat="59.9921961" lon="17.7375942">
        <ele>41.474</ele>
        <time>2012-09-19T16:22:15Z</time>
      </trkpt>
      <trkpt lat="59.9921162" lon="17.7375822">
        <ele>39.5513</ele>
        <time>2012-09-19T16:22:19Z</time>
      </trkpt>
      <trkpt lat="59.9919904" lon="17.7376081">
        <ele>34.7449</ele>
        <time>2012-09-19T16:22:24Z</time>
      </trkpt>
      <trkpt lat="59.991968" lon="17.7376235">
        <ele>33.7834</ele>
        <time>2012-09-19T16:22:25Z</time>
      </trkpt>
      <trkpt lat="59.9918326" lon="17.7376602">
        <ele>33.3029</ele>
        <time>2012-09-19T16:22:30Z</time>
      </trkpt>
      <trkpt lat="59.9918043" lon="17.7376712">
        <ele>33.3029</ele>
        <time>2012-09-19T16:22:31Z</time>
      </trkpt>
      <trkpt lat="59.9916496" lon="17.7376623">
        <ele>33.3029</ele>
        <time>2012-09-19T16:22:37Z</time>
      </trkpt>
      <trkpt lat="59.9915473" lon="17.7376707">
        <ele>34.7449</ele>
        <time>2012-09-19T16:22:41Z</time>
      </trkpt>
      <trkpt lat="59.9914087" lon="17.7376999">
        <ele>33.7834</ele>
        <time>2012-09-19T16:22:47Z</time>
      </trkpt>
      <trkpt lat="59.9912886" lon="17.7376874">
        <ele>33.7834</ele>
        <time>2012-09-19T16:22:53Z</time>
      </trkpt>
      <trkpt lat="59.991145" lon="17.7377491">
        <ele>33.3029</ele>
        <time>2012-09-19T16:22:59Z</time>
      </trkpt>
      <trkpt lat="59.9909938" lon="17.7378428">
        <ele>32.3416</ele>
        <time>2012-09-19T16:23:05Z</time>
      </trkpt>
      <trkpt lat="59.9908653" lon="17.7379187">
        <ele>34.2642</ele>
        <time>2012-09-19T16:23:10Z</time>
      </trkpt>
      <trkpt lat="59.9907716" lon="17.7379837">
        <ele>33.7834</ele>
        <time>2012-09-19T16:23:14Z</time>
      </trkpt>
      <trkpt lat="59.9906427" lon="17.7380893">
        <ele>34.7449</ele>
        <time>2012-09-19T16:23:19Z</time>
      </trkpt>
      <trkpt lat="59.9905155" lon="17.7381474">
        <ele>31.3801</ele>
        <time>2012-09-19T16:23:25Z</time>
      </trkpt>
      <trkpt lat="59.9904074" lon="17.7381798">
        <ele>30.4188</ele>
        <time>2012-09-19T16:23:29Z</time>
      </trkpt>
      <trkpt lat="59.9902627" lon="17.7382566">
        <ele>30.4188</ele>
        <time>2012-09-19T16:23:35Z</time>
      </trkpt>
      <trkpt lat="59.990123" lon="17.7383275">
        <ele>31.8607</ele>
        <time>2012-09-19T16:23:40Z</time>
      </trkpt>
      <trkpt lat="59.9899988" lon="17.7383803">
        <ele>33.3029</ele>
        <time>2012-09-19T16:23:45Z</time>
      </trkpt>
      <trkpt lat="59.9898619" lon="17.738455">
        <ele>35.2255</ele>
        <time>2012-09-19T16:23:50Z</time>
      </trkpt>
      <trkpt lat="59.9897372" lon="17.7385043">
        <ele>38.5901</ele>
        <time>2012-09-19T16:23:55Z</time>
      </trkpt>
      <trkpt lat="59.9896375" lon="17.7385171">
        <ele>39.5513</ele>
        <time>2012-09-19T16:23:59Z</time>
      </trkpt>
      <trkpt lat="59.9895221" lon="17.7385587">
        <ele>41.9547</ele>
        <time>2012-09-19T16:24:04Z</time>
      </trkpt>
      <trkpt lat="59.9893599" lon="17.738625">
        <ele>43.8773</ele>
        <time>2012-09-19T16:24:10Z</time>
      </trkpt>
      <trkpt lat="59.9893055" lon="17.7386501">
        <ele>45.3192</ele>
        <time>2012-09-19T16:24:12Z</time>
      </trkpt>
      <trkpt lat="59.9891854" lon="17.7387077">
        <ele>48.2034</ele>
        <time>2012-09-19T16:24:17Z</time>
      </trkpt>
      <trkpt lat="59.9890605" lon="17.7387771">
        <ele>49.6453</ele>
        <time>2012-09-19T16:24:22Z</time>
      </trkpt>
      <trkpt lat="59.9889348" lon="17.7388507">
        <ele>50.6066</ele>
        <time>2012-09-19T16:24:27Z</time>
      </trkpt>
      <trkpt lat="59.9889094" lon="17.7388683">
        <ele>50.6066</ele>
        <time>2012-09-19T16:24:28Z</time>
      </trkpt>
      <trkpt lat="59.9887638" lon="17.7390206">
        <ele>51.5679</ele>
        <time>2012-09-19T16:24:34Z</time>
      </trkpt>
      <trkpt lat="59.9887151" lon="17.7390685">
        <ele>52.5292</ele>
        <time>2012-09-19T16:24:36Z</time>
      </trkpt>
      <trkpt lat="59.9886125" lon="17.7391456">
        <ele>51.5679</ele>
        <time>2012-09-19T16:24:41Z</time>
      </trkpt>
      <trkpt lat="59.9885502" lon="17.7391782">
        <ele>52.0486</ele>
        <time>2012-09-19T16:24:44Z</time>
      </trkpt>
      <trkpt lat="59.9883939" lon="17.7392257">
        <ele>51.0872</ele>
        <time>2012-09-19T16:24:50Z</time>
      </trkpt>
      <trkpt lat="59.9882849" lon="17.7392256">
        <ele>49.1646</ele>
        <time>2012-09-19T16:24:54Z</time>
      </trkpt>
      <trkpt lat="59.9881919" lon="17.7392533">
        <ele>44.8386</ele>
        <time>2012-09-19T16:24:58Z</time>
      </trkpt>
      <trkpt lat="59.9880421" lon="17.7393159">
        <ele>42.916</ele>
        <time>2012-09-19T16:25:04Z</time>
      </trkpt>
      <trkpt lat="59.9879324" lon="17.7393376">
        <ele>41.9547</ele>
        <time>2012-09-19T16:25:08Z</time>
      </trkpt>
      <trkpt lat="59.9878318" lon="17.7393263">
        <ele>40.5128</ele>
        <time>2012-09-19T16:25:12Z</time>
      </trkpt>
      <trkpt lat="59.9876895" lon="17.7393656">
        <ele>41.9547</ele>
        <time>2012-09-19T16:25:17Z</time>
      </trkpt>
      <trkpt lat="59.987524" lon="17.7393764">
        <ele>41.474</ele>
        <time>2012-09-19T16:25:23Z</time>
      </trkpt>
      <trkpt lat="59.9874294" lon="17.7393857">
        <ele>38.1094</ele>
        <time>2012-09-19T16:25:27Z</time>
      </trkpt>
      <trkpt lat="59.9873413" lon="17.7394673">
        <ele>36.1868</ele>
        <time>2012-09-19T16:25:31Z</time>
      </trkpt>
      <trkpt lat="59.9872279" lon="17.7394919">
        <ele>35.2255</ele>
        <time>2012-09-19T16:25:35Z</time>
      </trkpt>
      <trkpt lat="59.9871344" lon="17.7394696">
        <ele>34.2642</ele>
        <time>2012-09-19T16:25:38Z</time>
      </trkpt>
      <trkpt lat="59.9870802" lon="17.7394434">
        <ele>35.2255</ele>
        <time>2012-09-19T16:25:40Z</time>
      </trkpt>
      <trkpt lat="59.9869341" lon="17.739317">
        <ele>35.7061</ele>
        <time>2012-09-19T16:25:46Z</time>
      </trkpt>
      <trkpt lat="59.9868052" lon="17.739212">
        <ele>37.1481</ele>
        <time>2012-09-19T16:25:51Z</time>
      </trkpt>
      <trkpt lat="59.9866519" lon="17.7390656">
        <ele>39.0707</ele>
        <time>2012-09-19T16:25:57Z</time>
      </trkpt>
      <trkpt lat="59.9865369" lon="17.7389792">
        <ele>40.9934</ele>
        <time>2012-09-19T16:26:01Z</time>
      </trkpt>
      <trkpt lat="59.986419" lon="17.7388493">
        <ele>43.3966</ele>
        <time>2012-09-19T16:26:06Z</time>
      </trkpt>
      <trkpt lat="59.9863028" lon="17.7387149">
        <ele>44.358</ele>
        <time>2012-09-19T16:26:11Z</time>
      </trkpt>
      <trkpt lat="59.9862188" lon="17.7386612">
        <ele>44.358</ele>
        <time>2012-09-19T16:26:14Z</time>
      </trkpt>
      <trkpt lat="59.9860602" lon="17.7385364">
        <ele>44.8386</ele>
        <time>2012-09-19T16:26:20Z</time>
      </trkpt>
      <trkpt lat="59.9859581" lon="17.7384903">
        <ele>44.358</ele>
        <time>2012-09-19T16:26:24Z</time>
      </trkpt>
      <trkpt lat="59.9858127" lon="17.7383963">
        <ele>43.8773</ele>
        <time>2012-09-19T16:26:29Z</time>
      </trkpt>
      <trkpt lat="59.9857374" lon="17.7383402">
        <ele>43.3966</ele>
        <time>2012-09-19T16:26:32Z</time>
      </trkpt>
      <trkpt lat="59.9856151" lon="17.738313">
        <ele>44.358</ele>
        <time>2012-09-19T16:26:36Z</time>
      </trkpt>
      <trkpt lat="59.9855141" lon="17.738341">
        <ele>43.3966</ele>
        <time>2012-09-19T16:26:39Z</time>
      </trkpt>
      <trkpt lat="59.9854618" lon="17.7383435">
        <ele>42.4354</ele>
        <time>2012-09-19T16:26:41Z</time>
      </trkpt>
      <trkpt lat="59.9853308" lon="17.738277">
        <ele>40.9934</ele>
        <time>2012-09-19T16:26:46Z</time>
      </trkpt>
      <trkpt lat="59.985274" lon="17.7382504">
        <ele>40.9934</ele>
        <time>2012-09-19T16:26:48Z</time>
      </trkpt>
      <trkpt lat="59.9851543" lon="17.7382041">
        <ele>40.0321</ele>
        <time>2012-09-19T16:26:53Z</time>
      </trkpt>
      <trkpt lat="59.9850837" lon="17.7382032">
        <ele>40.0321</ele>
        <time>2012-09-19T16:26:56Z</time>
      </trkpt>
      <trkpt lat="59.9849344" lon="17.7381738">
        <ele>37.6287</ele>
        <time>2012-09-19T16:27:02Z</time>
      </trkpt>
      <trkpt lat="59.9848817" lon="17.7381909">
        <ele>36.1868</ele>
        <time>2012-09-19T16:27:04Z</time>
      </trkpt>
      <trkpt lat="59.9847065" lon="17.7381147">
        <ele>32.8223</ele>
        <time>2012-09-19T16:27:11Z</time>
      </trkpt>
      <trkpt lat="59.9846093" lon="17.7380739">
        <ele>30.4188</ele>
        <time>2012-09-19T16:27:15Z</time>
      </trkpt>
      <trkpt lat="59.9844757" lon="17.7380257">
        <ele>27.0543</ele>
        <time>2012-09-19T16:27:21Z</time>
      </trkpt>
      <trkpt lat="59.9844547" lon="17.7380319">
        <ele>26.0929</ele>
        <time>2012-09-19T16:27:22Z</time>
      </trkpt>
      <trkpt lat="59.9843315" lon="17.7379899">
        <ele>23.209</ele>
        <time>2012-09-19T16:27:27Z</time>
      </trkpt>
      <trkpt lat="59.9841949" lon="17.7379752">
        <ele>18.4023</ele>
        <time>2012-09-19T16:27:33Z</time>
      </trkpt>
      <trkpt lat="59.984046" lon="17.7379504">
        <ele>13.1151</ele>
        <time>2012-09-19T16:27:39Z</time>
      </trkpt>
      <trkpt lat="59.9840053" lon="17.7379545">
        <ele>11.6732</ele>
        <time>2012-09-19T16:27:41Z</time>
      </trkpt>
      <trkpt lat="59.9839003" lon="17.7379857">
        <ele>9.2699</ele>
        <time>2012-09-19T16:27:45Z</time>
      </trkpt>
      <trkpt lat="59.9837721" lon="17.7380092">
        <ele>7.34717</ele>
        <time>2012-09-19T16:27:49Z</time>
      </trkpt>
      <trkpt lat="59.9836909" lon="17.7380477">
        <ele>6.86646</ele>
        <time>2012-09-19T16:27:52Z</time>
      </trkpt>
      <trkpt lat="59.9836327" lon="17.7380553">
        <ele>6.86646</ele>
        <time>2012-09-19T16:27:54Z</time>
      </trkpt>
      <trkpt lat="59.9835126" lon="17.7381005">
        <ele>8.30859</ele>
        <time>2012-09-19T16:27:58Z</time>
      </trkpt>
      <trkpt lat="59.9833868" lon="17.7381308">
        <ele>9.2699</ele>
        <time>2012-09-19T16:28:02Z</time>
      </trkpt>
      <trkpt lat="59.983247" lon="17.7381493">
        <ele>13.5958</ele>
        <time>2012-09-19T16:28:07Z</time>
      </trkpt>
      <trkpt lat="59.9831343" lon="17.7381216">
        <ele>15.999</ele>
        <time>2012-09-19T16:28:11Z</time>
      </trkpt>
      <trkpt lat="59.9830278" lon="17.7381116">
        <ele>16.9604</ele>
        <time>2012-09-19T16:28:15Z</time>
      </trkpt>
      <trkpt lat="59.9829134" lon="17.7380835">
        <ele>17.4412</ele>
        <time>2012-09-19T16:28:20Z</time>
      </trkpt>
      <trkpt lat="59.9828542" lon="17.7380301">
        <ele>17.4412</ele>
        <time>2012-09-19T16:28:23Z</time>
      </trkpt>
      <trkpt lat="59.98268" lon="17.7380296">
        <ele>17.9218</ele>
        <time>2012-09-19T16:28:29Z</time>
      </trkpt>
      <trkpt lat="59.9825435" lon="17.7380384">
        <ele>18.8831</ele>
        <time>2012-09-19T16:28:35Z</time>
      </trkpt>
      <trkpt lat="59.9823994" lon="17.7380925">
        <ele>19.3638</ele>
        <time>2012-09-19T16:28:40Z</time>
      </trkpt>
      <trkpt lat="59.982367" lon="17.7381048">
        <ele>19.3638</ele>
        <time>2012-09-19T16:28:41Z</time>
      </trkpt>
      <trkpt lat="59.9821804" lon="17.7381696">
        <ele>20.325</ele>
        <time>2012-09-19T16:28:47Z</time>
      </trkpt>
      <trkpt lat="59.9821553" lon="17.7381668">
        <ele>20.8057</ele>
        <time>2012-09-19T16:28:48Z</time>
      </trkpt>
      <trkpt lat="59.9820356" lon="17.7382635">
        <ele>22.7283</ele>
        <time>2012-09-19T16:28:52Z</time>
      </trkpt>
      <trkpt lat="59.9818846" lon="17.7383261">
        <ele>25.1317</ele>
        <time>2012-09-19T16:28:58Z</time>
      </trkpt>
      <trkpt lat="59.981723" lon="17.7383996">
        <ele>25.6123</ele>
        <time>2012-09-19T16:29:04Z</time>
      </trkpt>
      <trkpt lat="59.9816168" lon="17.738425">
        <ele>26.0929</ele>
        <time>2012-09-19T16:29:08Z</time>
      </trkpt>
      <trkpt lat="59.9814634" lon="17.7384697">
        <ele>28.4962</ele>
        <time>2012-09-19T16:29:13Z</time>
      </trkpt>
      <trkpt lat="59.981335" lon="17.7385136">
        <ele>29.9381</ele>
        <time>2012-09-19T16:29:17Z</time>
      </trkpt>
      <trkpt lat="59.9812008" lon="17.738571">
        <ele>29.4575</ele>
        <time>2012-09-19T16:29:22Z</time>
      </trkpt>
      <trkpt lat="59.9811702" lon="17.7385742">
        <ele>29.4575</ele>
        <time>2012-09-19T16:29:23Z</time>
      </trkpt>
      <trkpt lat="59.9809967" lon="17.738614">
        <ele>29.9381</ele>
        <time>2012-09-19T16:29:29Z</time>
      </trkpt>
      <trkpt lat="59.9808734" lon="17.7386991">
        <ele>28.9769</ele>
        <time>2012-09-19T16:29:33Z</time>
      </trkpt>
      <trkpt lat="59.9807802" lon="17.7387648">
        <ele>29.9381</ele>
        <time>2012-09-19T16:29:36Z</time>
      </trkpt>
      <trkpt lat="59.9806963" lon="17.7388063">
        <ele>31.8607</ele>
        <time>2012-09-19T16:29:39Z</time>
      </trkpt>
      <trkpt lat="59.9805419" lon="17.7388118">
        <ele>34.2642</ele>
        <time>2012-09-19T16:29:44Z</time>
      </trkpt>
      <trkpt lat="59.980357" lon="17.7388565">
        <ele>36.1868</ele>
        <time>2012-09-19T16:29:50Z</time>
      </trkpt>
      <trkpt lat="59.9802133" lon="17.7388196">
        <ele>35.2255</ele>
        <time>2012-09-19T16:29:55Z</time>
      </trkpt>
      <trkpt lat="59.9800574" lon="17.7387356">
        <ele>32.8223</ele>
        <time>2012-09-19T16:30:01Z</time>
      </trkpt>
      <trkpt lat="59.9799418" lon="17.7387326">
        <ele>31.3801</ele>
        <time>2012-09-19T16:30:05Z</time>
      </trkpt>
      <trkpt lat="59.9798431" lon="17.7387743">
        <ele>29.4575</ele>
        <time>2012-09-19T16:30:09Z</time>
      </trkpt>
      <trkpt lat="59.9797338" lon="17.7388477">
        <ele>27.5349</ele>
        <time>2012-09-19T16:30:13Z</time>
      </trkpt>
      <trkpt lat="59.9796205" lon="17.7388932">
        <ele>27.0543</ele>
        <time>2012-09-19T16:30:17Z</time>
      </trkpt>
      <trkpt lat="59.9795147" lon="17.7389951">
        <ele>24.1703</ele>
        <time>2012-09-19T16:30:21Z</time>
      </trkpt>
      <trkpt lat="59.9794182" lon="17.7390673">
        <ele>23.209</ele>
        <time>2012-09-19T16:30:25Z</time>
      </trkpt>
      <trkpt lat="59.9792831" lon="17.7391277">
        <ele>21.767</ele>
        <time>2012-09-19T16:30:30Z</time>
      </trkpt>
      <trkpt lat="59.9791534" lon="17.7392106">
        <ele>21.2864</ele>
        <time>2012-09-19T16:30:34Z</time>
      </trkpt>
      <trkpt lat="59.9790292" lon="17.7392849">
        <ele>23.209</ele>
        <time>2012-09-19T16:30:38Z</time>
      </trkpt>
      <trkpt lat="59.978944" lon="17.73932">
        <ele>22.7283</ele>
        <time>2012-09-19T16:30:41Z</time>
      </trkpt>
      <trkpt lat="59.9788624" lon="17.7395717">
        <ele>25.6123</ele>
        <time>2012-09-19T16:30:46Z</time>
      </trkpt>
      <trkpt lat="59.9787935" lon="17.7397541">
        <ele>29.4575</ele>
        <time>2012-09-19T16:30:50Z</time>
      </trkpt>
      <trkpt lat="59.9787817" lon="17.7398506">
        <ele>30.8995</ele>
        <time>2012-09-19T16:30:52Z</time>
      </trkpt>
      <trkpt lat="59.9787875" lon="17.7399458">
        <ele>31.8607</ele>
        <time>2012-09-19T16:30:54Z</time>
      </trkpt>
    </trkseg>
  </trk>
</gpx>